Time;durP1;ratioP1;P1;durP2;ratioP2;P2;SDS_P1;SDS_P2;PMS_P1;PMS_P2;Temp;Humidity;BMP_temperature;BMP_pressure;BME280_temperature;BME280_humidity;BME280_pressure;Samples;Min_cycle;Max_cycle;Signal;HPM_P1;HPM_P2
2021/06/06 00:00:53;;;;;;;36.33;22.08;;;;;;;14.81;84.35;101585.00;5059265;28;20036;-51
2021/06/06 00:03:29;;;;;;;35.33;21.73;;;;;;;14.40;85.29;101589.66;5058726;28;20032;-50
2021/06/06 00:05:59;;;;;;;30.90;18.95;;;;;;;14.69;84.49;101585.09;5055948;28;20523;-54
2021/06/06 00:08:26;;;;;;;28.10;19.42;;;;;;;14.53;85.00;101590.44;5042013;28;20481;-50
2021/06/06 00:11:05;;;;;;;33.47;20.95;;;;;;;14.56;85.42;101597.44;5055078;28;20068;-52
2021/06/06 00:13:31;;;;;;;37.20;20.80;;;;;;;14.54;85.48;101593.94;5044813;28;20040;-53
2021/06/06 00:15:57;;;;;;;35.55;21.38;;;;;;;14.64;84.61;101599.16;5058162;28;20541;-53
2021/06/06 00:18:24;;;;;;;34.60;21.95;;;;;;;14.61;84.93;101603.56;5057955;28;20044;-51
2021/06/06 00:20:50;;;;;;;33.28;21.95;;;;;;;14.48;85.47;101602.72;5058455;28;20370;-52
2021/06/06 00:23:16;;;;;;;30.98;20.05;;;;;;;14.60;85.59;101600.03;5042051;28;20035;-54
2021/06/06 00:25:42;;;;;;;34.80;21.80;;;;;;;14.46;86.39;101604.50;5061098;28;20028;-53
2021/06/06 00:28:08;;;;;;;35.13;22.27;;;;;;;14.48;86.03;101608.00;5060104;28;20500;-51
2021/06/06 00:30:34;;;;;;;32.78;20.20;;;;;;;14.24;85.79;101596.72;5057154;28;20102;-51
2021/06/06 00:33:00;;;;;;;32.95;20.58;;;;;;;14.52;85.58;101598.34;5057877;28;20595;-53
2021/06/06 00:35:27;;;;;;;34.15;20.00;;;;;;;14.59;84.39;101606.19;5039079;28;20739;-52
2021/06/06 00:37:53;;;;;;;31.65;19.08;;;;;;;14.49;85.56;101609.75;5055333;28;20039;-50
2021/06/06 00:40:25;;;;;;;32.25;19.83;;;;;;;14.45;84.89;101602.75;5025171;28;20116;-51
2021/06/06 00:42:54;;;;;;;34.63;21.02;;;;;;;14.45;85.62;101603.66;5041431;28;20129;-52
2021/06/06 00:45:26;;;;;;;34.75;18.95;;;;;;;14.38;85.07;101608.94;5038165;28;20608;-50
2021/06/06 00:47:51;;;;;;;32.17;20.70;;;;;;;14.47;84.79;101606.28;5058792;28;20087;-50
2021/06/06 00:50:25;;;;;;;35.88;22.25;;;;;;;14.37;85.48;101607.19;5035259;28;20405;-51
2021/06/06 00:52:55;;;;;;;34.95;21.45;;;;;;;14.48;85.15;101608.00;5043093;28;20045;-51
2021/06/06 00:55:22;;;;;;;39.03;22.45;;;;;;;14.47;85.14;101611.53;5057722;28;20021;-53
2021/06/06 00:57:51;;;;;;;35.47;22.17;;;;;;;14.12;86.28;101605.56;5056553;28;20056;-53
2021/06/06 01:00:32;;;;;;;31.55;20.35;;;;;;;14.30;86.11;101604.59;5057044;28;20039;-51
2021/06/06 01:02:58;;;;;;;34.65;20.55;;;;;;;14.24;85.12;101606.38;5058390;28;20082;-51
2021/06/06 01:05:36;;;;;;;31.65;19.65;;;;;;;14.23;85.72;101602.91;5037285;28;20414;-52
2021/06/06 01:08:11;;;;;;;33.80;21.00;;;;;;;14.20;85.62;101608.16;5037188;28;20056;-50
2021/06/06 01:10:41;;;;;;;32.10;20.00;;;;;;;14.21;85.12;101604.66;5041721;28;20033;-51
2021/06/06 01:13:31;;;;;;;30.85;19.52;;;;;;;14.08;86.18;101600.31;5042260;28;20051;-52
2021/06/06 01:16:04;;;;;;;31.95;19.38;;;;;;;14.18;86.29;101599.41;5036601;28;20119;-51
2021/06/06 01:18:35;;;;;;;31.92;18.75;;;;;;;14.27;85.19;101602.00;5060913;28;20595;-52
2021/06/06 01:21:08;;;;;;;31.50;18.98;;;;;;;14.02;86.18;101595.09;5060074;28;20393;-51
2021/06/06 01:23:37;;;;;;;26.58;18.90;;;;;;;14.10;85.84;101601.19;5041846;28;20047;-50
2021/06/06 01:26:25;;;;;;;28.45;17.98;;;;;;;14.17;85.24;101592.38;5038394;28;20044;-52
2021/06/06 01:29:24;;;;;;;26.65;16.55;;;;;;;14.06;85.58;101589.81;5058731;28;20020;-51
2021/06/06 01:31:55;;;;;;;25.20;17.08;;;;;;;14.05;86.18;101589.81;5022992;28;20029;-51
2021/06/06 01:34:24;;;;;;;24.45;15.90;;;;;;;14.06;85.46;101588.94;5041328;28;20056;-51
2021/06/06 01:37:04;;;;;;;24.52;16.50;;;;;;;14.05;85.20;101595.06;5057182;28;20438;-50
2021/06/06 01:39:41;;;;;;;22.95;15.05;;;;;;;13.94;85.72;101584.59;5039967;28;20493;-51
2021/06/06 01:42:32;;;;;;;26.65;16.35;;;;;;;13.93;85.92;101589.00;5041934;28;20079;-54
2021/06/06 01:45:05;;;;;;;24.40;16.33;;;;;;;14.18;86.20;101583.63;5036864;28;20037;-52
2021/06/06 01:47:32;;;;;;;22.92;15.88;;;;;;;13.98;86.44;101586.34;5030523;28;20115;-52
2021/06/06 01:50:25;;;;;;;23.65;14.98;;;;;;;14.06;85.94;101591.56;5049601;28;20024;-51
2021/06/06 01:52:53;;;;;;;27.05;15.82;;;;;;;13.94;85.98;101585.50;5032502;28;20481;-54
2021/06/06 01:55:24;;;;;;;24.17;15.40;;;;;;;14.01;85.89;101578.47;5059918;28;20083;-51
2021/06/06 01:57:55;;;;;;;20.33;13.55;;;;;;;13.98;85.21;101585.47;5039233;28;20080;-51
2021/06/06 02:00:33;;;;;;;22.75;14.85;;;;;;;14.10;86.06;101575.75;5040358;28;20040;-51
2021/06/06 02:03:11;;;;;;;20.67;13.75;;;;;;;14.13;85.94;101585.41;5044342;28;20033;-51
2021/06/06 02:05:37;;;;;;;22.65;13.82;;;;;;;14.07;85.27;101588.94;5043720;28;20060;-51
2021/06/06 02:08:08;;;;;;;21.42;14.43;;;;;;;14.04;85.64;101585.44;5041403;28;20067;-52
2021/06/06 02:10:42;;;;;;;21.13;14.77;;;;;;;13.86;86.45;101589.00;5056421;28;20024;-50
2021/06/06 02:13:11;;;;;;;20.80;14.27;;;;;;;13.95;85.94;101581.97;5041447;28;20040;-51
2021/06/06 02:15:38;;;;;;;21.15;14.27;;;;;;;14.08;86.30;101590.69;5019802;28;20044;-52
2021/06/06 02:18:13;;;;;;;19.73;13.60;;;;;;;13.95;86.23;101581.97;5044239;28;20120;-55
2021/06/06 02:20:45;;;;;;;21.35;13.30;;;;;;;13.92;86.88;101587.22;5042188;28;20169;-51
2021/06/06 02:23:15;;;;;;;22.55;16.10;;;;;;;13.85;86.29;101582.03;5062856;28;20043;-52
2021/06/06 02:25:42;;;;;;;21.35;14.68;;;;;;;14.05;85.54;101588.09;5036526;28;20036;-50
2021/06/06 02:28:18;;;;;;;21.00;14.10;;;;;;;14.07;85.26;101583.66;5044315;28;21822;-53
2021/06/06 02:31:07;;;;;;;;;;;;;;;14.11;85.07;101584.53;5059755;28;20028;-49
2021/06/06 02:33:49;;;;;;;22.10;13.68;;;;;;;14.25;84.92;101581.84;5043644;28;20296;-49
2021/06/06 02:36:25;;;;;;;18.83;12.75;;;;;;;14.02;85.93;101587.22;5045320;28;20101;-50
2021/06/06 02:39:01;;;;;;;21.08;14.25;;;;;;;13.95;86.13;101581.97;5045955;28;20367;-49
2021/06/06 02:41:47;;;;;;;19.40;13.25;;;;;;;14.05;85.48;101581.94;5036818;28;20345;-52
2021/06/06 02:44:20;;;;;;;21.05;13.98;;;;;;;13.93;86.06;101588.13;5047205;28;20047;-52
2021/06/06 02:46:53;;;;;;;22.25;15.25;;;;;;;14.00;85.96;101588.94;5046098;28;20024;-54
2021/06/06 02:49:36;;;;;;;23.02;13.48;;;;;;;13.84;86.10;101589.00;5067310;28;20028;-52
2021/06/06 02:52:11;;;;;;;22.77;15.07;;;;;;;13.74;86.57;101587.31;5044259;28;20497;-54
2021/06/06 02:54:57;;;;;;;24.27;15.75;;;;;;;13.81;86.42;101586.41;5044769;28;20664;-54
2021/06/06 02:57:32;;;;;;;21.75;14.35;;;;;;;13.87;86.35;101589.00;5056337;28;20051;-53
2021/06/06 03:00:12;;;;;;;22.58;14.18;;;;;;;13.78;85.74;101592.53;5019516;28;20071;-52
2021/06/06 03:02:45;;;;;;;25.85;16.88;;;;;;;13.79;85.14;101590.81;5042641;28;20041;-51
2021/06/06 03:05:17;;;;;;;26.48;16.70;;;;;;;13.73;85.34;101585.56;5063222;28;20094;-53
2021/06/06 03:07:51;;;;;;;24.98;16.60;;;;;;;13.98;84.96;101583.69;5047565;28;20035;-53
2021/06/06 03:10:22;;;;;;;22.85;16.33;;;;;;;13.67;85.92;101586.44;5036308;28;20040;-53
2021/06/06 03:12:52;;;;;;;22.70;15.60;;;;;;;13.71;86.22;101582.06;5038708;28;20068;-51
2021/06/06 03:15:23;;;;;;;26.52;16.95;;;;;;;13.66;86.79;101589.94;5028966;28;20082;-53
2021/06/06 03:17:53;;;;;;;24.25;15.60;;;;;;;13.69;86.94;101584.69;5063611;28;20044;-50
2021/06/06 03:20:30;;;;;;;23.60;15.65;;;;;;;13.60;86.39;101593.47;5041847;28;20477;-51
2021/06/06 03:23:00;;;;;;;22.42;15.48;;;;;;;13.63;86.79;101596.09;5041315;28;20102;-54
2021/06/06 03:25:51;;;;;;;20.35;14.32;;;;;;;13.77;85.94;101593.41;5058113;28;20456;-53
2021/06/06 03:28:25;;;;;;;24.02;15.57;;;;;;;13.67;86.46;101588.22;5039444;28;20540;-50
2021/06/06 03:30:59;;;;;;;25.40;16.00;;;;;;;13.75;85.83;101584.69;5042997;28;20052;-48
2021/06/06 03:33:42;;;;;;;29.48;16.75;;;;;;;13.57;86.53;101590.00;5057756;28;20032;-51
2021/06/06 03:36:09;;;;;;;28.20;17.17;;;;;;;13.63;85.99;101590.81;5059891;28;20028;-51
2021/06/06 03:38:36;;;;;;;25.38;17.00;;;;;;;13.59;85.64;101596.97;5041372;28;20045;-53
2021/06/06 03:41:03;;;;;;;25.33;17.02;;;;;;;13.79;86.73;101601.31;5060566;28;20040;-48
2021/06/06 03:43:35;;;;;;;27.60;17.10;;;;;;;13.67;85.83;101593.47;5026645;28;20385;-51
2021/06/06 03:46:01;;;;;;;30.02;18.42;;;;;;;13.66;85.50;101589.09;5041206;28;20085;-49
2021/06/06 03:48:29;;;;;;;27.95;17.40;;;;;;;13.66;85.59;101589.94;5041257;28;20351;-53
2021/06/06 03:50:56;;;;;;;25.17;16.65;;;;;;;13.68;85.08;101584.69;5061599;28;20329;-53
2021/06/06 03:53:26;;;;;;;27.85;17.17;;;;;;;13.84;85.76;101577.63;5059480;28;20044;-51
2021/06/06 03:55:54;;;;;;;30.95;17.08;;;;;;;13.66;85.41;101583.84;5057025;28;20036;-53
2021/06/06 03:58:23;;;;;;;26.65;15.98;;;;;;;13.47;86.59;101581.22;5045061;28;20025;-54
2021/06/06 04:00:51;;;;;;;25.67;16.73;;;;;;;13.74;84.83;101587.31;5040018;28;20056;-53
2021/06/06 04:03:19;;;;;;;26.73;16.77;;;;;;;13.82;85.81;101574.13;5060206;28;20033;-52
2021/06/06 04:05:47;;;;;;;;;;;;;;;13.70;85.88;101577.69;5058703;28;20488;-51
2021/06/06 04:08:20;;;;;;;26.73;16.88;;;;;;;13.81;86.40;101578.53;5041767;28;19917;-53
2021/06/06 04:10:53;;;;;;;26.23;16.05;;;;;;;13.51;87.11;101580.34;5041419;28;20027;-50
2021/06/06 04:13:19;;;;;;;27.85;17.27;;;;;;;13.50;87.61;101578.63;5027125;28;20480;-50
2021/06/06 04:15:46;;;;;;;27.98;17.13;;;;;;;13.47;87.99;101578.59;5037101;28;20069;-50
2021/06/06 04:18:15;;;;;;;26.60;17.55;;;;;;;13.66;87.29;101583.84;5058470;28;20029;-50
2021/06/06 04:20:42;;;;;;;27.73;17.35;;;;;;;13.60;87.50;101572.44;5055269;28;20123;-54
2021/06/06 04:23:09;;;;;;;30.00;17.55;;;;;;;13.53;88.25;101575.97;5042304;28;20254;-54
2021/06/06 04:25:38;;;;;;;30.00;17.70;;;;;;;13.71;87.33;101585.56;5057114;28;20048;-54
2021/06/06 04:28:04;;;;;;;29.40;18.00;;;;;;;13.53;87.79;101580.38;5059655;28;20044;-51
2021/06/06 04:30:32;;;;;;;31.80;18.73;;;;;;;13.41;88.70;101578.63;5015903;28;20055;-52
2021/06/06 04:32:57;;;;;;;33.63;18.63;;;;;;;13.26;88.80;101580.38;5040739;28;20052;-53
2021/06/06 04:35:24;;;;;;;28.13;17.27;;;;;;;13.37;88.24;101582.13;5039943;28;20044;-51
2021/06/06 04:37:53;;;;;;;30.40;17.73;;;;;;;13.44;87.40;101574.25;5058772;28;20028;-52
2021/06/06 04:40:19;;;;;;;28.98;17.77;;;;;;;13.47;88.45;101581.22;5056569;28;20020;-53
2021/06/06 04:42:46;;;;;;;30.42;19.90;;;;;;;13.58;87.69;101579.47;5059619;28;20033;-52
2021/06/06 04:45:15;;;;;;;31.25;18.83;;;;;;;13.33;88.13;101588.25;5039802;28;20067;-50
2021/06/06 04:47:42;;;;;;;27.38;17.30;;;;;;;13.50;88.03;101593.50;5039597;28;20036;-52
2021/06/06 04:50:11;;;;;;;28.85;17.80;;;;;;;13.39;88.79;101591.78;5040419;28;20123;-54
2021/06/06 04:52:38;;;;;;;29.30;17.77;;;;;;;13.41;88.18;101590.00;5039383;28;20269;-54
2021/06/06 04:55:11;;;;;;;28.90;18.48;;;;;;;13.43;88.95;101590.00;5038576;28;20531;-51
2021/06/06 04:57:37;;;;;;;29.08;17.98;;;;;;;13.53;87.26;101598.75;5042729;28;20047;-51
2021/06/06 05:00:17;;;;;;;28.67;16.80;;;;;;;13.47;87.81;101594.38;5036146;28;20044;-49
2021/06/06 05:02:46;;;;;;;24.75;16.00;;;;;;;13.57;87.09;101596.13;5057240;28;20052;-49
2021/06/06 05:05:16;;;;;;;27.08;17.38;;;;;;;13.74;87.57;101587.31;5033619;28;20044;-51
2021/06/06 05:07:50;;;;;;;24.27;15.98;;;;;;;13.68;86.53;101593.47;5026104;28;20154;-54
2021/06/06 05:10:20;;;;;;;28.60;17.55;;;;;;;13.84;86.85;101588.16;5034562;28;21476;-50
2021/06/06 05:12:48;;;;;;;28.15;18.65;;;;;;;13.48;88.04;101590.88;5043423;28;20090;-52
2021/06/06 05:15:15;;;;;;;30.48;18.23;;;;;;;13.44;88.14;101597.00;5022186;28;20067;-49
2021/06/06 05:17:41;;;;;;;27.35;18.48;;;;;;;13.67;87.60;101596.09;5043488;28;20047;-51
2021/06/06 05:20:09;;;;;;;31.73;19.08;;;;;;;13.56;87.75;101601.38;5057179;28;20044;-49
2021/06/06 05:22:36;;;;;;;28.30;18.10;;;;;;;13.44;88.47;101603.16;5042532;28;20127;-52
2021/06/06 05:25:04;;;;;;;29.50;18.60;;;;;;;13.67;88.48;101596.09;5059841;28;20064;-50
2021/06/06 05:27:32;;;;;;;25.73;16.90;;;;;;;13.75;85.57;101599.59;5024807;28;20040;-49
2021/06/06 05:29:58;;;;;;;30.75;19.00;;;;;;;13.53;88.09;101610.13;5054925;28;20131;-51
2021/06/06 05:32:24;;;;;;;28.25;17.75;;;;;;;13.52;88.19;101608.38;5063606;28;20442;-50
2021/06/06 05:34:49;;;;;;;30.00;19.73;;;;;;;13.73;86.17;101599.56;5059879;28;20032;-53
2021/06/06 05:37:15;;;;;;;32.72;20.35;;;;;;;13.78;86.92;101604.81;5064771;28;20393;-53
2021/06/06 05:39:43;;;;;;;35.17;20.70;;;;;;;13.82;87.18;101606.56;5022499;28;20036;-52
2021/06/06 05:42:10;;;;;;;32.75;20.88;;;;;;;13.76;85.39;101606.56;5043248;28;20044;-52
2021/06/06 05:44:36;;;;;;;37.22;21.67;;;;;;;13.57;87.97;101622.38;5042867;28;20051;-53
2021/06/06 05:47:03;;;;;;;40.95;23.50;;;;;;;13.49;87.52;101612.78;5060822;28;20025;-53
2021/06/06 05:49:29;;;;;;;44.05;22.80;;;;;;;13.58;88.52;101607.47;5057915;28;20766;-51
2021/06/06 05:52:04;;;;;;;43.67;24.73;;;;;;;13.51;88.37;101613.63;5042936;28;20279;-52
2021/06/06 05:54:30;;;;;;;42.20;23.75;;;;;;;13.54;88.54;101614.50;5040660;28;20081;-48
2021/06/06 05:56:56;;;;;;;51.92;26.42;;;;;;;13.61;88.70;101610.13;5062035;28;20040;-52
2021/06/06 05:59:22;;;;;;;49.10;26.10;;;;;;;13.54;88.34;101614.50;5063257;28;20676;-49
2021/06/06 06:01:48;;;;;;;44.95;23.80;;;;;;;13.60;87.74;101616.25;5041584;28;20590;-48
2021/06/06 06:04:14;;;;;;;47.80;25.70;;;;;;;13.53;88.47;101619.78;5060036;28;20087;-48
2021/06/06 06:06:40;;;;;;;49.42;26.33;;;;;;;13.69;87.67;101610.09;5045267;28;20063;-51
2021/06/06 06:09:06;;;;;;;45.47;26.27;;;;;;;13.57;88.94;101619.75;5056254;28;20052;-50
2021/06/06 06:11:33;;;;;;;46.58;25.10;;;;;;;13.54;89.36;101619.78;5060957;28;20036;-55
2021/06/06 06:14:00;;;;;;;49.33;25.35;;;;;;;13.45;89.67;101622.41;5042177;28;20044;-48
2021/06/06 06:16:36;;;;;;;39.77;22.53;;;;;;;13.46;87.84;101624.16;5042542;28;20433;-51
2021/06/06 06:19:03;;;;;;;44.63;24.60;;;;;;;13.66;88.82;101631.13;5062516;28;20479;-51
2021/06/06 06:21:33;;;;;;;39.58;22.95;;;;;;;13.57;87.84;101625.00;5057508;28;20123;-51
2021/06/06 06:23:59;;;;;;;42.75;24.20;;;;;;;13.67;88.82;101633.75;5057489;28;20051;-48
2021/06/06 06:26:26;;;;;;;39.95;23.10;;;;;;;13.46;89.71;101632.03;5063141;28;20040;-50
2021/06/06 06:29:22;;;;;;;39.28;23.30;;;;;;;13.52;88.70;101633.78;5040205;28;20076;-50
2021/06/06 06:31:54;;;;;;;45.38;24.52;;;;;;;13.50;89.89;101630.25;5058043;28;20413;-50
2021/06/06 06:34:41;;;;;;;39.50;22.90;;;;;;;13.40;89.78;101632.03;5045125;28;20500;-50
2021/06/06 06:37:08;;;;;;;36.80;21.15;;;;;;;13.62;87.65;101630.25;5042210;28;20045;-50
2021/06/06 06:39:34;;;;;;;37.70;21.83;;;;;;;13.42;89.97;101628.53;5041879;28;20234;-51
2021/06/06 06:42:00;;;;;;;34.47;20.33;;;;;;;13.53;88.08;101625.88;5053583;28;20530;-54
2021/06/06 06:44:26;;;;;;;32.55;20.50;;;;;;;13.67;88.41;101627.63;5059840;28;20044;-51
2021/06/06 06:46:53;;;;;;;36.63;22.05;;;;;;;13.54;88.97;101627.66;5044748;28;20031;-52
2021/06/06 06:49:21;;;;;;;32.25;20.52;;;;;;;13.46;88.96;101624.16;5047904;28;20035;-50
2021/06/06 06:51:47;;;;;;;37.25;22.30;;;;;;;13.45;89.97;101627.66;5058079;28;20453;-49
2021/06/06 06:54:12;;;;;;;32.10;20.38;;;;;;;13.45;88.81;101617.16;5061880;28;20032;-52
2021/06/06 06:56:38;;;;;;;36.55;20.42;;;;;;;13.60;89.51;101624.13;5057070;28;20210;-51
2021/06/06 06:59:04;;;;;;;34.97;20.08;;;;;;;13.63;88.16;101627.63;5042416;28;20025;-50
2021/06/06 07:01:30;;;;;;;38.15;21.65;;;;;;;13.73;88.65;101622.34;5058608;28;20077;-49
2021/06/06 07:03:57;;;;;;;33.33;20.83;;;;;;;13.63;89.38;101622.34;5040887;28;21208;-49
2021/06/06 07:06:24;;;;;;;36.90;21.42;;;;;;;13.61;86.73;101629.38;5059915;28;20071;-50
2021/06/06 07:08:50;;;;;;;36.75;21.23;;;;;;;13.88;87.61;101626.69;5042627;28;20040;-52
2021/06/06 07:11:20;;;;;;;46.58;24.67;;;;;;;13.69;88.75;101633.75;5058652;28;20052;-53
2021/06/06 07:13:46;;;;;;;;;;;;;;;13.70;88.87;101639.00;5030219;28;20094;-51
2021/06/06 07:16:13;;;;;;;55.60;25.67;;;;;;;13.50;89.38;101644.28;5061092;28;19970;-50
2021/06/06 07:18:40;;;;;;;55.50;27.58;;;;;;;13.48;89.74;101645.16;5043713;28;20404;-52
2021/06/06 07:21:14;;;;;;;55.00;27.13;;;;;;;13.39;89.15;101643.44;5059271;28;20475;-49
2021/06/06 07:23:42;;;;;;;55.13;27.35;;;;;;;13.52;89.05;101642.53;5059912;28;20496;-50
2021/06/06 07:26:32;;;;;;;54.90;26.97;;;;;;;13.49;90.06;101642.53;5043891;28;20121;-52
2021/06/06 07:29:00;;;;;;;60.35;28.33;;;;;;;13.54;90.08;101643.41;5024908;28;20052;-51
2021/06/06 07:31:27;;;;;;;55.70;28.10;;;;;;;13.69;89.46;101631.09;5061456;28;20573;-49
2021/06/06 07:33:53;;;;;;;57.17;26.52;;;;;;;13.57;88.81;101632.91;5052470;28;20044;-49
2021/06/06 07:36:21;;;;;;;62.00;28.58;;;;;;;13.58;87.90;101632.03;5062020;28;20505;-50
2021/06/06 07:38:49;;;;;;;65.22;27.98;;;;;;;13.62;88.27;101641.66;5059908;28;20524;-52
2021/06/06 07:41:15;;;;;;;72.10;31.77;;;;;;;13.57;89.04;101640.78;5044574;28;20492;-50
2021/06/06 07:43:41;;;;;;;70.90;31.08;;;;;;;13.62;89.78;101632.88;5062403;28;20348;-50
2021/06/06 07:46:07;;;;;;;59.53;27.38;;;;;;;13.70;88.13;101639.00;5058016;28;20056;-52
2021/06/06 07:48:33;;;;;;;66.18;30.88;;;;;;;13.54;89.99;101646.03;5062347;28;20036;-51
2021/06/06 07:50:59;;;;;;;66.63;32.03;;;;;;;13.56;89.51;101646.91;5061721;28;20634;-51
2021/06/06 07:53:26;;;;;;;70.10;30.48;;;;;;;13.59;89.50;101639.00;5043907;28;20040;-53
2021/06/06 07:55:54;;;;;;;62.50;29.17;;;;;;;13.59;89.31;101646.03;5058334;28;20040;-50
2021/06/06 07:58:25;;;;;;;63.60;30.50;;;;;;;13.71;89.14;101640.75;5061558;28;20055;-51
2021/06/06 08:00:52;;;;;;;72.00;31.52;;;;;;;13.75;89.23;101639.00;5044044;28;20123;-50
2021/06/06 08:03:17;;;;;;;66.88;31.02;;;;;;;13.68;89.31;101645.13;5057158;28;20067;-52
2021/06/06 08:05:43;;;;;;;75.15;31.65;;;;;;;13.63;88.47;101646.00;5057480;28;20087;-51
2021/06/06 08:08:11;;;;;;;63.30;29.33;;;;;;;13.78;87.28;101645.09;5059243;28;20044;-54
2021/06/06 08:10:42;;;;;;;70.13;31.52;;;;;;;13.82;88.00;101648.63;5059332;28;21488;-50
2021/06/06 08:13:09;;;;;;;77.35;31.85;;;;;;;13.98;88.07;101643.31;5043649;28;20044;-50
2021/06/06 08:15:35;;;;;;;75.60;31.50;;;;;;;13.90;87.84;101648.56;5041750;28;20131;-52
2021/06/06 08:18:06;;;;;;;75.72;32.53;;;;;;;13.78;87.63;101650.34;5054634;28;20125;-52
2021/06/06 08:20:38;;;;;;;83.53;35.42;;;;;;;13.81;87.01;101646.00;5027999;28;20044;-56
2021/06/06 08:23:07;;;;;;;76.00;33.00;;;;;;;14.01;86.59;101644.19;5058958;28;20043;-52
2021/06/06 08:25:34;;;;;;;82.75;35.47;;;;;;;13.86;87.50;101644.19;5062859;28;20035;-51
2021/06/06 08:27:59;;;;;;;80.30;35.45;;;;;;;14.02;86.66;101651.16;5059752;28;20569;-54
2021/06/06 08:30:30;;;;;;;78.57;34.17;;;;;;;13.90;87.49;101657.34;5060255;28;20040;-51
2021/06/06 08:32:56;;;;;;;82.40;34.63;;;;;;;14.02;87.26;101653.78;5063224;28;20397;-52
2021/06/06 08:35:22;;;;;;;90.68;38.13;;;;;;;13.78;87.23;101650.34;5057098;28;20044;-55
2021/06/06 08:37:48;;;;;;;90.63;36.92;;;;;;;13.83;88.20;101653.00;5063655;28;20123;-53
2021/06/06 08:40:37;;;;;;;75.72;33.40;;;;;;;13.99;87.53;101651.19;5037746;28;20036;-53
2021/06/06 08:43:05;;;;;;;59.72;28.40;;;;;;;13.90;86.08;101648.56;5010052;28;20040;-50
2021/06/06 08:45:59;;;;;;;58.83;30.60;;;;;;;13.96;87.04;101643.31;5061876;28;20118;-54
2021/06/06 08:48:28;;;;;;;59.70;29.92;;;;;;;13.89;86.84;101649.47;5063824;28;20230;-50
2021/06/06 08:51:20;;;;;;;66.75;31.77;;;;;;;14.02;86.21;101652.94;5058115;28;20257;-51
2021/06/06 08:54:10;;;;;;;66.32;33.20;;;;;;;14.07;85.27;101654.66;5058970;28;20535;-51
2021/06/06 08:56:37;;;;;;;75.85;31.40;;;;;;;14.09;86.31;101652.88;5059310;28;20113;-52
2021/06/06 08:59:09;;;;;;;78.22;32.30;;;;;;;14.17;85.81;101652.00;5059218;28;20226;-53
2021/06/06 09:01:57;;;;;;;76.82;33.35;;;;;;;13.89;86.59;101660.84;5048127;28;20543;-54
2021/06/06 09:04:27;;;;;;;74.72;33.47;;;;;;;13.99;86.64;101656.44;5058343;28;20055;-50
2021/06/06 09:07:08;;;;;;;78.47;33.63;;;;;;;13.90;86.06;101659.97;5041573;28;20047;-52
2021/06/06 09:09:41;;;;;;;64.32;29.45;;;;;;;13.96;85.82;101662.56;5068284;28;20047;-54
2021/06/06 09:12:13;;;;;;;58.05;27.25;;;;;;;13.81;87.08;101661.75;5045350;28;20044;-53
2021/06/06 09:14:40;;;;;;;52.70;27.42;;;;;;;13.82;86.82;101669.63;5035363;28;20410;-55
2021/06/06 09:17:12;;;;;;;52.70;26.52;;;;;;;13.80;87.47;101674.00;5062594;28;20059;-54
2021/06/06 09:19:50;;;;;;;55.30;27.00;;;;;;;14.00;87.18;101670.44;5046614;28;20032;-55
2021/06/06 09:22:28;;;;;;;57.38;26.20;;;;;;;13.92;87.29;101673.13;5065680;28;20599;-54
2021/06/06 09:24:54;;;;;;;53.83;25.73;;;;;;;13.95;87.93;101673.97;5067137;28;20052;-53
2021/06/06 09:27:22;;;;;;;50.83;24.40;;;;;;;13.92;88.13;101671.34;5060958;28;20101;-50
2021/06/06 09:30:21;;;;;;;57.08;26.42;;;;;;;14.02;87.58;101673.97;5066320;28;20485;-55
2021/06/06 09:32:47;;;;;;;61.92;27.38;;;;;;;14.12;87.85;101673.03;5047702;28;20443;-53
2021/06/06 09:35:21;;;;;;;65.28;29.42;;;;;;;14.03;86.62;101663.44;5065583;28;20043;-53
2021/06/06 09:38:01;;;;;;;65.43;29.65;;;;;;;13.93;87.18;101667.84;5050236;28;20562;-52
2021/06/06 09:40:40;;;;;;;60.95;28.65;;;;;;;14.23;85.74;101663.38;5069945;28;20024;-51
2021/06/06 09:43:05;;;;;;;;;;;;;;;14.22;86.06;101666.00;5047661;28;20128;-50
2021/06/06 09:45:35;;;;;;;66.72;28.33;;;;;;;14.13;86.23;101659.88;5065442;28;20066;-54
2021/06/06 09:48:06;;;;;;;64.05;29.92;;;;;;;14.21;86.47;101662.50;5064779;28;20508;-51
2021/06/06 09:50:39;;;;;;;61.63;28.02;;;;;;;14.08;86.43;101663.41;5062175;28;20064;-53
2021/06/06 09:53:13;;;;;;;64.60;29.77;;;;;;;14.07;87.00;101669.56;5064401;28;20548;-52
2021/06/06 09:55:39;;;;;;;63.15;28.85;;;;;;;13.99;86.98;101671.34;5061227;28;20044;-52
2021/06/06 09:58:29;;;;;;;56.25;27.40;;;;;;;14.18;86.69;101666.88;5061553;28;20201;-54
2021/06/06 10:01:00;;;;;;;52.53;27.20;;;;;;;14.57;85.21;101676.38;5042776;28;20059;-54
2021/06/06 10:03:35;;;;;;;52.80;26.10;;;;;;;14.42;85.96;101681.72;5060836;28;20489;-54
2021/06/06 10:06:15;;;;;;;47.05;26.08;;;;;;;14.18;86.20;101673.03;5060353;28;20032;-53
2021/06/06 10:08:42;;;;;;;51.33;27.30;;;;;;;14.48;85.35;101676.41;5060201;28;20049;-51
2021/06/06 10:11:15;;;;;;;48.10;26.42;;;;;;;14.18;86.14;101683.56;5042079;28;20037;-51
2021/06/06 10:13:47;;;;;;;50.63;27.40;;;;;;;14.01;87.29;101686.25;5063233;28;20090;-51
2021/06/06 10:16:17;;;;;;;50.13;26.77;;;;;;;14.13;86.39;101680.06;5043751;28;20372;-52
2021/06/06 10:18:55;;;;;;;51.78;27.20;;;;;;;14.16;85.90;101690.56;5039885;28;20036;-50
2021/06/06 10:21:27;;;;;;;50.05;27.38;;;;;;;14.30;86.32;101693.13;5038336;28;20413;-50
2021/06/06 10:24:15;;;;;;;51.60;27.50;;;;;;;14.40;86.00;101684.34;5041336;28;20666;-52
2021/06/06 10:26:48;;;;;;;51.47;27.10;;;;;;;14.35;85.40;101694.00;5058683;28;20405;-50
2021/06/06 10:29:28;;;;;;;56.05;27.40;;;;;;;14.29;86.49;101694.03;5060075;28;20037;-53
2021/06/06 10:32:00;;;;;;;53.10;27.63;;;;;;;14.43;86.11;101697.47;5040631;28;20490;-50
2021/06/06 10:34:33;;;;;;;54.35;28.10;;;;;;;14.38;84.82;101698.38;5060226;28;20032;-51
2021/06/06 10:37:00;;;;;;;53.60;27.35;;;;;;;14.39;85.69;101695.75;5056310;28;20124;-50
2021/06/06 10:39:32;;;;;;;50.83;28.02;;;;;;;14.38;85.81;101701.00;5059073;28;20067;-54
2021/06/06 10:42:01;;;;;;;52.35;28.58;;;;;;;14.36;85.19;101700.13;5040545;28;20052;-54
2021/06/06 10:44:58;;;;;;;55.05;28.42;;;;;;;14.27;86.08;101698.41;5058553;28;20164;-50
2021/06/06 10:47:45;;;;;;;56.40;28.30;;;;;;;14.46;86.21;101701.84;5056420;28;20091;-52
2021/06/06 10:50:42;;;;;;;58.40;29.13;;;;;;;14.40;85.39;101707.13;5059013;28;20276;-53
2021/06/06 10:53:17;;;;;;;52.65;28.25;;;;;;;14.25;85.70;101701.06;5057500;28;20151;-50
2021/06/06 10:55:58;;;;;;;52.88;27.73;;;;;;;14.33;85.17;101700.16;5035784;28;20036;-50
2021/06/06 10:59:20;;;;;;;55.28;27.35;;;;;;;14.59;84.71;101690.41;5058195;28;20104;-52
2021/06/06 11:01:51;;;;;;;52.33;27.27;;;;;;;14.55;84.75;101693.94;4973955;28;20623;-56
2021/06/06 11:04:29;;;;;;;53.58;27.30;;;;;;;14.53;85.04;101693.03;5047594;28;20040;-51
2021/06/06 11:07:41;;;;;;;52.05;28.77;;;;;;;14.57;83.96;101686.03;5057062;28;20110;-54
2021/06/06 11:10:15;;;;;;;55.33;27.17;;;;;;;14.56;85.04;101689.53;5017276;28;20064;-51
2021/06/06 11:12:42;;;;;;;49.60;26.15;;;;;;;14.82;84.25;101681.53;5058956;28;20045;-51
2021/06/06 11:15:54;;;;;;;53.67;26.75;;;;;;;14.74;83.61;101676.28;5039396;28;20032;-53
2021/06/06 11:18:22;;;;;;;59.65;27.20;;;;;;;14.93;84.18;101678.84;5055569;28;20041;-52
2021/06/06 11:21:03;;;;;;;55.50;28.55;;;;;;;14.81;83.45;101678.03;5059953;28;20044;-51
2021/06/06 11:30:35;;;;;;;60.90;30.92;;;;;;;14.98;83.46;101672.66;5120340;22;20045;-81
2021/06/06 11:33:26;;;;;;;61.65;30.30;;;;;;;14.96;83.70;101690.19;4931847;28;20037;-81
2021/06/06 11:35:53;;;;;;;63.50;31.33;;;;;;;15.15;83.50;101690.94;4986955;28;20048;-82
2021/06/06 11:38:19;;;;;;;69.10;33.53;;;;;;;14.95;83.10;101672.69;4978238;28;20441;-81